createdAt,value
2022-09-01T04:35:37.891Z,1.50
2022-09-01T04:37:47.666Z,1.50
2022-09-01T04:39:57.531Z,1.40
2022-09-01T06:02:34.023Z,1.67
2022-09-01T06:04:44.384Z,1.53
2022-09-01T06:07:10.884Z,1.30
2022-09-01T06:09:23.514Z,1.60
2022-09-01T06:11:33.137Z,1.70
2022-09-01T06:13:42.150Z,1.27
2022-09-01T06:15:53.720Z,1.50
2022-09-01T06:18:03.920Z,1.53
2022-09-01T06:20:12.742Z,1.20
2022-09-01T06:22:21.345Z,1.00
2022-09-01T06:24:29.968Z,1.07
2022-09-01T06:26:40.327Z,1.13
2022-09-01T06:28:54.545Z,1.10
2022-09-01T06:31:08.097Z,1.00
2022-09-01T06:33:19.507Z,1.20
2022-09-01T06:35:29.660Z,0.90
2022-09-01T06:37:38.692Z,0.93
2022-09-01T06:39:47.647Z,1.20
2022-09-01T06:41:58.313Z,0.80
2022-09-01T06:44:11.123Z,1.00
2022-09-01T06:46:23.917Z,0.87
2022-09-01T06:48:34.368Z,0.93
2022-09-01T06:55:43.762Z,0.70
2022-09-01T06:58:09.542Z,0.87
2022-09-01T07:00:24.178Z,0.83
2022-09-01T07:02:35.194Z,0.80
2022-09-01T07:04:45.973Z,0.90
2022-09-01T07:09:38.557Z,0.73
2022-09-01T07:12:24.400Z,0.70
2022-09-01T07:14:21.475Z,0.77
2022-09-01T07:16:34.673Z,0.70
2022-09-01T07:18:58.288Z,0.73
2022-09-01T07:21:36.863Z,1.13
2022-09-01T07:23:47.312Z,0.70
2022-09-01T07:26:08.489Z,0.60
2022-09-01T07:28:19.117Z,1.00
2022-09-01T07:30:27.831Z,0.80
2022-09-01T07:42:30.043Z,0.90
2022-09-01T07:43:22.442Z,0.70
2022-09-01T07:45:31.148Z,0.80
2022-09-01T07:47:55.649Z,0.70
2022-09-01T07:50:24.552Z,0.70
2022-09-01T07:52:33.544Z,0.80
2022-09-01T07:54:43.420Z,0.77
2022-09-01T07:56:52.015Z,0.50
2022-09-01T07:59:02.334Z,0.70
2022-09-01T08:01:11.535Z,0.80
2022-09-01T08:03:21.506Z,0.93
2022-09-01T08:05:30.143Z,0.60
2022-09-01T08:07:51.741Z,0.70
2022-09-01T08:10:02.006Z,0.77
2022-09-01T08:12:10.648Z,0.70
2022-09-01T08:14:19.191Z,0.70
2022-09-01T08:16:27.941Z,0.70
2022-09-01T08:18:49.194Z,0.80
2022-09-01T08:20:58.110Z,0.60
2022-09-01T08:23:06.883Z,0.70
2022-09-01T08:25:16.883Z,0.70
2022-09-01T08:27:25.572Z,0.60
2022-09-01T08:29:34.828Z,0.60
2022-09-01T08:31:43.709Z,0.70
2022-09-01T08:33:52.309Z,0.77
2022-09-01T08:36:00.866Z,0.70
2022-09-01T08:38:09.650Z,0.60
2022-09-01T08:40:20.516Z,0.70
2022-09-01T08:42:37.322Z,0.87
2022-09-01T08:44:48.524Z,0.60
2022-09-01T08:47:00.070Z,0.50
2022-09-01T08:49:24.719Z,0.50
2022-09-01T08:51:37.678Z,0.90
2022-09-01T08:53:47.946Z,1.00
2022-09-01T08:55:59.040Z,0.80
2022-09-01T08:58:07.627Z,0.53
2022-09-01T09:00:18.251Z,0.50
2022-09-01T09:02:36.354Z,0.70
2022-09-01T09:04:54.462Z,0.60
2022-09-01T09:07:06.929Z,0.60
2022-09-01T09:12:48.975Z,0.70
2022-09-01T09:15:03.750Z,0.90
2022-09-01T09:17:12.795Z,0.70
2022-09-01T09:19:24.488Z,0.70
2022-09-01T09:21:35.438Z,0.90
2022-09-01T09:23:46.232Z,0.60
2022-09-01T09:25:55.147Z,0.70
2022-09-01T09:28:05.125Z,0.60
2022-09-01T09:30:14.784Z,0.70
2022-09-01T09:32:35.152Z,0.70
2022-09-01T09:34:52.886Z,1.10
2022-09-01T09:37:02.850Z,1.10
2022-09-01T09:39:13.301Z,0.60
2022-09-01T09:41:27.547Z,0.70
2022-09-01T09:43:42.235Z,0.80
2022-09-01T09:45:53.058Z,0.47
2022-09-01T09:48:02.106Z,0.60
2022-09-01T09:50:13.878Z,0.60
2022-09-01T09:52:24.868Z,0.60
2022-09-01T09:54:34.640Z,0.60
2022-09-01T09:56:44.564Z,0.80
2022-09-01T09:58:54.780Z,0.77
2022-09-01T10:01:05.529Z,0.70
2022-09-01T10:03:15.327Z,0.60
2022-09-01T10:05:26.146Z,0.80
2022-09-01T10:07:37.152Z,0.60
2022-09-01T10:09:49.839Z,0.73
2022-09-01T10:11:59.091Z,0.63
2022-09-01T10:14:13.742Z,0.50
2022-09-01T10:16:33.417Z,0.70
2022-09-01T10:18:44.904Z,0.70
2022-09-01T10:20:56.425Z,0.80
2022-09-01T10:23:04.990Z,0.77
2022-09-01T10:25:25.288Z,0.73
2022-09-01T10:27:35.327Z,0.50
2022-09-01T10:29:47.733Z,0.60
2022-09-01T10:32:28.109Z,0.67
2022-09-01T10:34:26.144Z,0.60
2022-09-01T10:36:35.350Z,0.60
2022-09-01T10:38:52.661Z,0.70
2022-09-01T10:41:10.105Z,0.60
2022-09-01T10:43:28.577Z,0.67
2022-09-01T10:45:40.409Z,0.70
2022-09-01T10:47:49.230Z,0.70
2022-09-01T10:50:07.683Z,0.73
2022-09-01T10:52:37.425Z,0.70
2022-09-01T10:54:55.715Z,0.70
2022-09-01T10:57:09.009Z,0.50
2022-09-01T10:59:40.169Z,0.70
2022-09-01T11:02:24.800Z,0.60
2022-09-01T11:04:53.360Z,0.80
2022-09-01T11:07:12.555Z,0.60
2022-09-01T11:09:22.935Z,0.60
2022-09-01T11:11:33.440Z,0.70
2022-09-01T11:13:50.162Z,0.60
2022-09-01T11:16:45.891Z,0.67
2022-09-01T11:18:47.841Z,0.57
2022-09-01T11:20:57.959Z,0.60
2022-09-01T11:23:09.890Z,0.80
2022-09-01T11:25:39.902Z,0.77
2022-09-01T11:27:58.565Z,0.70
2022-09-01T11:30:09.787Z,0.70
2022-09-01T11:32:18.655Z,0.80
2022-09-01T11:34:29.108Z,0.70
2022-09-01T11:36:38.776Z,0.70
2022-09-01T11:38:51.369Z,0.60
2022-09-01T11:41:00.288Z,0.60
2022-09-01T11:43:12.541Z,0.67
2022-09-01T11:45:23.314Z,0.77
2022-09-01T11:47:34.163Z,0.60
2022-09-01T11:49:48.855Z,0.63
2022-09-01T11:51:57.668Z,0.73
2022-09-01T11:54:07.671Z,0.60
2022-09-01T11:56:18.106Z,0.73
2022-09-01T11:58:39.449Z,0.70
2022-09-01T12:00:48.049Z,0.73
2022-09-01T12:02:57.276Z,0.50
2022-09-01T12:05:06.845Z,0.70
2022-09-01T12:07:25.745Z,0.60
2022-09-01T12:09:44.138Z,0.60
2022-09-01T12:11:52.901Z,0.70
2022-09-01T12:14:03.954Z,0.67
2022-09-01T12:16:22.772Z,0.70
2022-09-01T12:18:31.989Z,0.70
2022-09-01T12:20:41.068Z,0.60
2022-09-01T12:22:49.922Z,0.73
2022-09-01T12:24:59.920Z,0.70
2022-09-01T12:27:08.458Z,0.70
2022-09-01T12:29:17.495Z,0.60
2022-09-01T12:31:27.613Z,0.77
2022-09-01T12:33:36.744Z,0.73
2022-09-01T12:35:45.659Z,0.73
2022-09-01T12:37:54.507Z,0.67
2022-09-01T12:40:07.606Z,0.70
2022-09-01T12:42:25.591Z,0.60
2022-09-01T12:44:35.582Z,0.60
2022-09-01T12:46:44.882Z,0.70
2022-09-01T12:48:55.522Z,0.63
2022-09-01T12:51:09.200Z,0.60
2022-09-01T12:53:23.248Z,0.80
2022-09-01T12:55:49.218Z,0.70
2022-09-01T12:57:59.547Z,0.57
2022-09-01T13:00:09.852Z,0.60
2022-09-01T13:02:28.542Z,0.70
2022-09-01T13:04:37.309Z,0.77
2022-09-01T13:06:45.800Z,0.60
2022-09-01T13:08:54.239Z,0.80
2022-09-01T13:11:07.425Z,0.80
2022-09-01T13:13:16.835Z,0.70
2022-09-01T13:15:25.662Z,0.80
2022-09-01T13:17:34.114Z,0.80
2022-09-01T13:19:42.929Z,0.70
2022-09-01T13:21:53.160Z,0.70
2022-09-01T13:24:01.996Z,0.77
2022-09-01T13:26:12.422Z,0.70
2022-09-01T13:30:32.855Z,0.70
2022-09-01T13:33:18.793Z,0.70
2022-09-01T13:35:10.854Z,0.70
2022-09-01T13:37:19.415Z,0.93
2022-09-01T13:39:27.933Z,0.80
2022-09-01T13:41:37.974Z,0.80
2022-09-01T13:43:48.303Z,0.80
2022-09-01T13:45:57.096Z,0.80
2022-09-01T13:48:22.609Z,0.63
2022-09-01T13:51:14.178Z,0.70
2022-09-01T13:52:59.648Z,0.60
2022-09-01T13:55:09.357Z,0.67
2022-09-01T13:57:19.198Z,0.60
2022-09-01T13:59:27.965Z,0.60
2022-09-01T14:01:36.787Z,0.50
2022-09-01T14:03:48.877Z,0.90
2022-09-01T14:05:59.905Z,0.60
2022-09-01T14:08:09.028Z,0.50
2022-09-01T14:10:17.544Z,0.50
2022-09-01T14:12:30.389Z,0.60
2022-09-01T14:17:07.992Z,0.70
2022-09-01T14:19:17.131Z,0.60
2022-09-01T14:21:25.561Z,0.80
2022-09-01T14:23:36.362Z,0.67
2022-09-01T14:25:45.256Z,0.53
2022-09-01T14:27:57.187Z,0.60
2022-09-01T14:30:06.594Z,0.73
2022-09-01T14:32:15.053Z,0.70
2022-09-01T14:34:24.530Z,0.60
2022-09-01T14:36:35.669Z,0.60
2022-09-01T14:38:44.167Z,0.60
2022-09-01T14:40:53.409Z,0.60
2022-09-01T14:43:03.430Z,0.60
2022-09-01T14:45:12.723Z,0.60
2022-09-01T14:47:21.429Z,0.77
2022-09-01T14:49:33.404Z,0.60
2022-09-01T14:54:10.515Z,0.77
2022-09-01T14:56:19.329Z,0.60
2022-09-01T14:58:29.739Z,0.67
2022-09-01T15:00:39.243Z,0.80
2022-09-01T15:02:47.882Z,0.70
2022-09-01T15:04:56.550Z,0.83
2022-09-01T15:07:06.675Z,0.90
2022-09-01T15:09:19.002Z,1.03
2022-09-01T15:11:28.543Z,1.20
2022-09-01T15:13:38.647Z,1.20
2022-09-01T15:15:47.232Z,1.10
2022-09-01T15:17:55.783Z,1.30
2022-09-01T15:20:19.439Z,1.10
2022-09-01T15:22:28.241Z,1.10
2022-09-01T15:24:37.005Z,1.30
2022-09-01T15:26:47.411Z,1.30
2022-09-01T15:28:58.067Z,1.00
2022-09-01T15:31:07.070Z,0.83
2022-09-01T15:33:16.334Z,0.73
2022-09-01T15:35:24.951Z,0.80
2022-09-01T15:37:33.456Z,0.60
2022-09-01T15:39:42.011Z,0.60
2022-09-01T15:41:50.986Z,0.70
2022-09-01T15:44:00.978Z,0.70
2022-09-01T15:46:09.576Z,0.77
2022-09-01T15:48:18.518Z,0.80
2022-09-01T15:50:27.941Z,0.80
2022-09-01T15:52:36.773Z,0.67
2022-09-01T15:54:45.295Z,0.90
2022-09-01T15:56:53.823Z,0.73
2022-09-01T15:59:03.816Z,0.80
2022-09-01T16:01:12.394Z,0.73
2022-09-01T16:03:20.997Z,0.67
2022-09-01T16:05:29.623Z,0.70
2022-09-01T16:07:38.234Z,0.60
2022-09-01T16:09:46.857Z,0.60
2022-09-01T16:11:55.614Z,0.70
2022-09-01T16:14:05.583Z,0.57
2022-09-01T16:16:18.414Z,0.70
2022-09-01T16:18:31.148Z,0.83
2022-09-01T16:20:51.979Z,0.70
2022-09-01T16:23:08.882Z,0.67
2022-09-01T16:25:20.127Z,0.70
2022-09-01T16:27:33.271Z,0.70
2022-09-01T16:29:45.515Z,0.70
2022-09-01T16:31:56.317Z,0.60
2022-09-01T16:34:11.654Z,1.37
2022-09-01T16:36:26.316Z,0.70
2022-09-01T16:38:40.072Z,0.90
2022-09-01T16:40:52.860Z,0.93
2022-09-01T16:43:05.188Z,0.80
2022-09-01T16:45:17.259Z,0.70
2022-09-01T16:47:34.552Z,0.70
2022-09-01T16:49:46.758Z,0.70
2022-09-01T16:52:03.834Z,0.80
2022-09-01T16:54:24.853Z,0.80
2022-09-01T16:56:35.920Z,1.00
2022-09-01T16:58:52.040Z,0.70
2022-09-01T17:01:08.055Z,0.90
2022-09-01T17:03:19.315Z,0.80
2022-09-01T17:05:32.623Z,0.90
2022-09-01T17:07:45.624Z,1.00
2022-09-01T17:09:59.136Z,0.90
2022-09-01T17:12:27.846Z,0.90
2022-09-01T17:14:39.956Z,1.10
2022-09-01T17:16:51.175Z,1.10
2022-09-01T17:19:00.857Z,1.10
2022-09-01T17:21:12.703Z,1.10
2022-09-01T17:23:28.469Z,1.47
2022-09-01T17:25:40.714Z,1.20
2022-09-01T17:27:53.116Z,1.20
2022-09-01T17:30:02.536Z,1.17
2022-09-01T17:32:16.349Z,1.10
2022-09-01T17:34:30.191Z,1.20
2022-09-01T17:36:46.986Z,1.10
2022-09-01T17:39:01.097Z,1.30
2022-09-01T17:41:16.087Z,1.10
2022-09-01T17:43:27.738Z,1.00
2022-09-01T17:45:51.393Z,0.90
2022-09-01T17:48:07.592Z,1.17
2022-09-01T17:50:19.799Z,0.80
2022-09-01T17:52:34.991Z,0.90
2022-09-01T17:54:47.197Z,0.80
2022-09-01T17:57:00.106Z,0.87
2022-09-01T17:59:12.091Z,1.00
2022-09-01T18:01:24.281Z,1.07
2022-09-01T18:03:45.800Z,0.90
2022-09-01T18:05:59.376Z,1.10
2022-09-01T18:08:15.545Z,1.03
2022-09-01T18:10:26.930Z,1.40
2022-09-01T18:12:36.619Z,1.47
2022-09-01T18:14:51.494Z,1.13
2022-09-01T18:17:02.787Z,1.95
2022-09-01T18:19:18.180Z,1.10
2022-09-01T18:21:28.396Z,1.03
2022-09-01T18:23:39.612Z,1.43
2022-09-01T18:25:50.378Z,1.20
2022-09-01T18:27:59.134Z,1.00
2022-09-01T18:30:09.620Z,1.30
2022-09-01T18:32:22.967Z,1.30
2022-09-01T18:34:37.126Z,1.00
2022-09-01T18:36:50.781Z,1.07
2022-09-01T18:39:02.108Z,0.83
2022-09-01T18:41:21.404Z,1.13
2022-09-01T18:43:32.404Z,0.70
2022-09-01T18:45:46.888Z,0.83
2022-09-01T18:48:01.151Z,0.70
2022-09-01T18:50:26.027Z,0.90
2022-09-01T18:52:52.685Z,0.80
2022-09-01T18:59:12.904Z,1.80
2022-09-01T19:01:30.935Z,0.90
2022-09-01T19:03:43.606Z,1.07
2022-09-01T19:06:10.721Z,0.90
2022-09-01T19:08:23.868Z,1.20
2022-09-01T19:10:35.327Z,1.00
2022-09-01T19:12:49.733Z,0.90
2022-09-01T19:15:06.459Z,0.80
2022-09-01T19:17:27.887Z,0.90
2022-09-01T19:19:41.487Z,0.80
2022-09-01T19:21:51.864Z,0.80
2022-09-01T19:24:09.223Z,0.70
2022-09-01T19:26:21.435Z,0.80
2022-09-01T19:28:36.479Z,0.70
2022-09-01T19:30:49.129Z,0.73
2022-09-01T19:32:59.735Z,0.80
2022-09-01T19:35:12.007Z,0.80
2022-09-01T19:37:21.642Z,0.80
2022-09-01T19:39:31.712Z,1.13
2022-09-01T19:41:45.655Z,0.90
2022-09-01T20:01:01.477Z,0.90
2022-09-01T20:03:13.210Z,0.90
2022-09-01T20:14:47.309Z,0.87
2022-09-01T20:16:58.959Z,1.00
2022-09-01T20:19:11.787Z,0.90
